CSUN Campus Station - National Weather Service Data Page - PST Time




                Date      RH     Dew  Seasonal     Current   Max Air   Min Air    Wind    Wind    Wind    Gust     Bar    Rain
                Time       %   Point      Rain    Air Temp     Since     Since   Speed    Gust     Dir     Dir   Press   Total
                               Deg F    Inches       Deg F  Midnight  Midnight     MPH     MPH                      mb  Inches
------------------------------------------------------------------------------------------------------------------------------
    10/13/2017 00:00      79    52.0     21.14        58.5      81.0      53.7       2       2      79     105    1013    0.00
    10/13/2017 00:10      79    52.1     21.14        58.6      58.9      58.4       1       2      32      75    1013    0.00
    10/13/2017 00:20      80    52.2     21.14        58.6      58.9      58.4       1       2      51      77    1013    0.00
    10/13/2017 00:30      79    51.7     21.14        58.0      58.9      57.8       1       2     319     325    1013    0.00
    10/13/2017 00:40      79    51.1     21.14        57.7      58.9      57.5       0       2     315     335    1013    0.00
    10/13/2017 00:50      79    50.7     21.14        57.4      58.9      57.0       0       1     296     306    1013    0.00
    10/13/2017 01:00      80    50.6     21.14        56.8      58.9      56.5       0       0     277     252    1013    0.00
    10/13/2017 01:10      81    50.6     21.14        56.4      58.9      56.2       0       1     267     278    1013    0.00
    10/13/2017 01:20      82    50.4     21.14        56.0      58.9      55.8       0       0     237     244    1013    0.00
    10/13/2017 01:30      82    50.5     21.14        55.9      58.9      55.6       0       0       0     213    1013    0.00
    10/13/2017 01:40      82    50.4     21.14        55.7      58.9      55.6       0       0       0     203    1013    0.00
    10/13/2017 01:50      83    50.3     21.14        55.5      58.9      55.3       0       1     140     103    1013    0.00
    10/13/2017 02:00      83    50.3     21.14        55.3      58.9      55.0       0       1     104     104    1013    0.00
    10/13/2017 02:10      83    50.3     21.14        55.2      58.9      55.0       0       2     309     322    1012    0.00
    10/13/2017 02:20      83    50.2     21.14        55.3      58.9      55.0       0       1     319     316    1012    0.00
    10/13/2017 02:30      83    50.0     21.14        55.1      58.9      54.7       0       1      81     335    1012    0.00
    10/13/2017 02:40      83    49.6     21.14        54.7      58.9      54.4       0       0      19      27    1012    0.00
    10/13/2017 02:50      84    49.5     21.14        54.5      58.9      54.2       0       2     316     328    1012    0.00
    10/13/2017 03:00      83    49.8     21.14        54.8      58.9      54.2       0       2     324     339    1012    0.00
    10/13/2017 03:10      82    49.6     21.14        54.7      58.9      54.2       0       2      24      47    1012    0.00
    10/13/2017 03:20      83    48.9     21.14        54.0      58.9      53.8       0       1      85      86    1012    0.00
    10/13/2017 03:30      84    48.8     21.14        53.7      58.9      53.4       0       1     119     125    1013    0.00
    10/13/2017 03:40      84    48.9     21.14        53.6      58.9      53.4       0       1     305     299    1013    0.00
    10/13/2017 03:50      84    49.0     21.14        53.6      58.9      53.4       0       0     295     290    1013    0.00
    10/13/2017 04:00      84    49.2     21.14        53.7      58.9      53.4       0       2     327     327    1013    0.00
    10/13/2017 04:10      84    49.1     21.14        53.7      58.9      53.4       0       1      49      49    1013    0.00
    10/13/2017 04:20      84    48.7     21.14        53.4      58.9      53.0       0       0      46      44    1013    0.00
    10/13/2017 04:30      85    48.3     21.14        52.9      58.9      52.7       0       2      54     339    1013    0.00
    10/13/2017 04:40      85    48.8     21.14        53.3      58.9      52.7       0       2     353     350    1013    0.00
    10/13/2017 04:50      84    48.1     21.14        52.8      58.9      52.2       0       1     305     300    1013    0.00
    10/13/2017 05:00      85    47.9     21.14        52.3      58.9      52.1       0       1     304     320    1013    0.00
    10/13/2017 05:10      86    48.0     21.14        52.2      58.9      52.0       0       2     267     254    1013    0.00
    10/13/2017 05:20      86    48.2     21.14        52.3      58.9      52.0       0       2     359     288    1013    0.00
    10/13/2017 05:30      86    48.4     21.14        52.4      58.9      52.0       0       0     330     330    1013    0.00
    10/13/2017 05:40      86    48.5     21.14        52.5      58.9      52.0       0       2     332     330    1013    0.00
    10/13/2017 05:50      86    48.7     21.14        52.7      58.9      52.0       0       2     339     342    1013    0.00
    10/13/2017 06:00      86    48.3     21.14        52.3      58.9      52.0       0       1       9     354    1013    0.00
    10/13/2017 06:10      86    47.7     21.14        51.8      58.9      51.5       0       2     308     324    1013    0.00
    10/13/2017 06:20      86    48.1     21.14        52.1      58.9      51.5       0       2     323     324    1013    0.00
    10/13/2017 06:30      86    47.9     21.14        52.0      58.9      51.5       0       0       0     324    1013    0.00
    10/13/2017 06:40      86    48.1     21.14        52.3      58.9      51.5       0       0       0     314    1013    0.00
    10/13/2017 06:50      86    48.8     21.14        52.8      58.9      51.5       0       0       0     303    1014    0.00
    10/13/2017 07:00      86    50.6     21.14        54.6      58.9      51.5       0       0     245     245    1014    0.00
    10/13/2017 07:10      81    52.0     21.14        56.6      58.9      51.5       0       1     172     161    1014    0.00
    10/13/2017 07:20      71    51.3     21.14        59.0      60.2      51.5       1       2     166     157    1014    0.00
    10/13/2017 07:30      67    50.1     21.14        60.4      60.7      51.5       1       2     198     175    1014    0.00
    10/13/2017 07:40      67    49.7     21.14        60.5      61.0      51.5       1       2     245     250    1014    0.00
    10/13/2017 07:50      66    50.0     21.14        61.4      62.2      51.5       1       2     275     250    1014    0.00
    10/13/2017 08:00      64    50.8     21.14        62.8      63.8      51.5       0       1      62      53    1014    0.00
    10/13/2017 08:10      59    51.4     21.14        65.0      66.0      51.5       0       2     169     152    1014    0.00
    10/13/2017 08:20      59    50.8     21.14        65.8      66.2      51.5       2       3     158     164    1014    0.00
    10/13/2017 08:30      59    50.8     21.14        65.3      66.2      51.5       0       1     143     139    1014    0.00
    10/13/2017 08:40      55    50.2     21.14        65.9      66.7      51.5       0       2     153      56    1014    0.00
    10/13/2017 08:50      48    49.0     21.14        67.7      68.6      51.5       1       3     145     110    1014    0.00
    10/13/2017 09:00      50    47.6     21.14        67.8      68.6      51.5       1       3     135     164    1014    0.00
    10/13/2017 09:10      46    48.3     21.14        68.2      69.9      51.5       0       2     173     201    1014    0.00
    10/13/2017 09:20      46    47.7     21.14        70.0      70.6      51.5       1       3     213     200    1014    0.00
    10/13/2017 09:30      43    48.6     21.14        70.3      71.4      51.5       2       4     165     161    1014    0.00
    10/13/2017 09:40      44    47.5     21.14        70.4      71.6      51.5       2       6     147     143    1014    0.00
    10/13/2017 09:50      41    47.3     21.14        71.1      71.8      51.5       2       5     155     171    1014    0.00
    10/13/2017 10:00      40    45.5     21.14        71.6      72.3      51.5       2       5     201     195    1014    0.00
    10/13/2017 10:10      34    43.9     21.14        73.1      73.6      51.5       2       4     167     139    1014    0.00
    10/13/2017 10:20      33    43.3     21.14        72.7      73.6      51.5       2       5     182     153    1014    0.00
    10/13/2017 10:30      31    41.9     21.14        73.7      74.2      51.5       2       4     131     154    1014    0.00
    10/13/2017 10:40      27    40.7     21.14        74.9      75.3      51.5       2       5     172     187    1014    0.00
    10/13/2017 10:50      28    39.5     21.14        75.4      75.8      51.5       2       5     123     185    1014    0.00
    10/13/2017 11:00      25    37.9     21.14        76.5      77.5      51.5       0       3     161     205    1014    0.00
    10/13/2017 11:10      25    38.9     21.14        76.6      77.7      51.5       2       4     104     203    1014    0.00
    10/13/2017 11:20      24    39.1     21.14        77.6      79.0      51.5       2       6     163     203    1014    0.00
    10/13/2017 11:30      25    38.8     21.14        77.8      79.0      51.5       2       4     234     191    1014    0.00
    10/13/2017 11:40      25    39.1     21.14        78.5      79.8      51.5       2       6     199     159    1013    0.00
    10/13/2017 11:50      23    40.1     21.14        81.0      81.8      51.5       4       7     157     159    1013    0.00
    10/13/2017 12:00      23    39.1     21.14        81.0      81.9      51.5       2       5     147     112    1013    0.00
    10/13/2017 12:10      22    38.6     21.14        80.6      81.9      51.5       2       7     156     137    1013    0.00
    10/13/2017 12:20      23    38.7     21.14        81.1      81.9      51.5       2       5     151     178    1013    0.00
    10/13/2017 12:30      21    38.9     21.14        81.9      82.6      51.5       4       7     154     178    1013    0.00
    10/13/2017 12:40      23    38.1     21.14        81.2      82.6      51.5       2       5     117     138    1012    0.00
    10/13/2017 12:50      21    37.7     21.14        81.4      82.6      51.5       2       4     293       7    1012    0.00
    10/13/2017 13:00      20    37.7     21.14        81.9      82.8      51.5       3       6     175     182    1012    0.00
    10/13/2017 13:10      20    36.3     21.14        82.3      82.8      51.5       3       5     122     167    1012    0.00
    10/13/2017 13:20      18    35.1     21.14        82.4      83.4      51.5       2       5     113     140    1012    0.00
    10/13/2017 13:30      17    34.3     21.14        83.0      83.4      51.5       3       5     134     168    1012    0.00
    10/13/2017 13:40      17    34.3     21.14        83.2      83.8      51.5       3       5     142     207    1012    0.00
    10/13/2017 13:50      17    34.5     21.14        84.2      84.9      51.5       3       8     173     171    1012    0.00
    10/13/2017 14:00      18    34.5     21.14        84.4      85.2      51.5       2       5      57      83    1012    0.00
    10/13/2017 14:10      25    43.0     21.14        84.3      85.2      51.5       3       7     126     151    1011    0.00
    10/13/2017 14:20      26    44.9     21.14        84.3      85.2      51.5       3       7     125      90    1011    0.00
    10/13/2017 14:30      27    47.0     21.14        84.2      85.2      51.5       5      10     157     157    1011    0.00
    10/13/2017 14:40      27    45.8     21.14        82.9      85.2      51.5       4       8     188     186    1011    0.00
    10/13/2017 14:50      23    42.1     21.14        83.2      85.2      51.5       4       9     206     202    1011    0.00
    10/13/2017 15:00      29    43.4     21.14        83.3      85.2      51.5       3       7     211     183    1011    0.00
    10/13/2017 15:10      24    42.6     21.14        82.9      85.2      51.5       3       7     267     242    1011    0.00
    10/13/2017 15:20      25    42.8     21.14        82.5      85.2      51.5       4       7     247     252    1011    0.00
    10/13/2017 15:30      26    42.7     21.14        81.6      85.2      51.5       4       9     267     243    1011    0.00
    10/13/2017 15:40      26    43.1     21.14        81.4      85.2      51.5       3       9     263     254    1011    0.00
    10/13/2017 15:50      26    42.3     21.14        80.9      85.2      51.5       2       5     260     247    1011    0.00
    10/13/2017 16:00      27    42.7     21.14        80.6      85.2      51.5       2       4     222     225    1011    0.00
    10/13/2017 16:10      27    43.2     21.14        80.2      85.2      51.5       2       5     218     226    1011    0.00
    10/13/2017 16:20      27    42.5     21.14        79.5      85.2      51.5       3       6     250     263    1011    0.00
    10/13/2017 16:30      28    42.9     21.14        78.8      85.2      51.5       1       3     251     263    1012    0.00
    10/13/2017 16:40      32    45.3     21.14        78.4      85.2      51.5       2       4     199     249    1012    0.00
    10/13/2017 16:50      41    48.2     21.14        77.6      85.2      51.5       1       3     149     116    1011    0.00
    10/13/2017 17:00      44    52.4     21.14        76.4      85.2      51.5       2       4     167     140    1011    0.00
    10/13/2017 17:10      46    52.8     21.14        75.4      85.2      51.5       2       3     171     140    1012    0.00
    10/13/2017 17:20      47    53.2     21.14        74.9      85.2      51.5       2       3     135     156    1012    0.00
    10/13/2017 17:30      49    53.6     21.14        74.4      85.2      51.5       1       2      98     107    1012    0.00
    10/13/2017 17:40      50    53.9     21.14        73.8      85.2      51.5       1       3      91      86    1012    0.00
    10/13/2017 17:50      53    53.7     21.14        72.8      85.2      51.5       0       2     183     170    1012    0.00
    10/13/2017 18:00      54    54.0     21.14        71.7      85.2      51.5       1       3     158     165    1012    0.00
    10/13/2017 18:10      56    54.1     21.14        71.0      85.2      51.5       0       2     161     140    1012    0.00
    10/13/2017 18:20      58    54.7     21.14        70.5      85.2      51.5       1       3     135     146    1012    0.00
    10/13/2017 18:30      59    55.0     21.14        70.1      85.2      51.5       2       3     141     133    1012    0.00
    10/13/2017 18:40      61    55.1     21.14        69.6      85.2      51.5       2       2     138     147    1012    0.00
    10/13/2017 18:50      62    55.3     21.14        69.1      85.2      51.5       1       3     147     148    1012    0.00
    10/13/2017 19:00      64    55.4     21.14        68.5      85.2      51.5       2       3     137     147    1012    0.00
    10/13/2017 19:10      65    55.6     21.14        68.2      85.2      51.5       0       2     127     161    1012    0.00
    10/13/2017 19:20      65    55.6     21.14        67.7      85.2      51.5       0       2      87      94    1012    0.00
    10/13/2017 19:30      67    55.5     21.14        67.1      85.2      51.5       1       2     110      89    1012    0.00
    10/13/2017 19:40      68    55.6     21.14        66.6      85.2      51.5       0       2     108      94    1012    0.00
    10/13/2017 19:50      69    54.9     21.14        66.0      85.2      51.5       1       3     141     145    1013    0.00
    10/13/2017 20:00      71    55.6     21.14        65.7      85.2      51.5       2       4     140     164    1013    0.00
    10/13/2017 20:10      71    55.9     21.14        65.7      85.2      51.5       2       3     138     145    1013    0.00
    10/13/2017 20:20      73    55.8     21.14        65.1      85.2      51.5       0       2     136     121    1013    0.00
    10/13/2017 20:30      75    55.9     21.14        64.5      85.2      51.5       1       3     128     141    1013    0.00
    10/13/2017 20:40      76    56.1     21.14        64.0      85.2      51.5       0       3     164     139    1013    0.00
    10/13/2017 20:50      77    56.1     21.14        63.6      85.2      51.5       0       3     138     142    1013    0.00
    10/13/2017 21:00      78    55.8     21.14        63.0      85.2      51.5       1       2     180     288    1013    0.00
    10/13/2017 21:10      79    55.5     21.14        62.2      85.2      51.5       0       1     243     240    1013    0.00
    10/13/2017 21:20      81    55.7     21.14        61.9      85.2      51.5       0       1     156     135    1013    0.00
    10/13/2017 21:30      81    55.7     21.14        61.5      85.2      51.5       0       2     158     157    1013    0.00
    10/13/2017 21:40      83    55.4     21.14        61.0      85.2      51.5       1       3     141     166    1013    0.00
    10/13/2017 21:50      83    55.9     21.14        61.1      85.2      51.5       2       3     138     139    1013    0.00
    10/13/2017 22:00      84    55.6     21.14        60.8      85.2      51.5       1       3     151     160    1013    0.00
    10/13/2017 22:10      83    55.3     21.14        60.4      85.2      51.5       0       2     187     142    1013    0.00
    10/13/2017 22:20      84    55.3     21.14        60.1      85.2      51.5       0       3     148     148    1013    0.00
    10/13/2017 22:30      85    55.3     21.14        59.9      85.2      51.5       0       2      89      80    1013    0.00
    10/13/2017 22:40      85    55.1     21.14        59.6      85.2      51.5       0       3     238     250    1013    0.00
    10/13/2017 22:50      85    54.8     21.14        59.1      85.2      51.5       0       2     285     251    1013    0.00
    10/13/2017 23:00      86    54.4     21.14        58.6      85.2      51.5       1       4     320     262    1013    0.00
    10/13/2017 23:10      87    54.5     21.14        58.5      85.2      51.5       1       2     134     244    1013    0.00
    10/13/2017 23:20      87    54.2     21.14        58.2      85.2      51.5       1       5     354     249    1013    0.00
    10/13/2017 23:30      87    54.0     21.14        57.9      85.2      51.5       0       2     304     293    1013    0.00
    10/13/2017 23:40      87    53.6     21.14        57.4      85.2      51.5       0       2     323     319    1013    0.00
    10/13/2017 23:50      87    53.6     21.14        57.3      85.2      51.5       0       2     345     282    1013    0.00
    10/14/2017 00:00      88    53.4     21.14        57.1      85.2      51.5       0       2     304     349    1013    0.00
    10/14/2017 00:10      88    53.3     21.14        57.0      57.3      56.7       0       2      78     118    1013    0.00
    10/14/2017 00:20      88    53.5     21.14        57.1      57.7      56.6       0       2      35     106    1013    0.00
    10/14/2017 00:30      88    53.3     21.14        56.8      57.7      56.4       1       3       4     302    1013    0.00
    10/14/2017 00:40      88    52.8     21.14        56.3      57.7      56.1       1       4     326     345    1013    0.00
    10/14/2017 00:50      89    53.6     21.14        56.9      57.7      56.1       2       3      16     102    1013    0.00
    10/14/2017 01:00      88    53.2     21.14        56.6      57.7      56.1       0       2     327     310    1013    0.00
    10/14/2017 01:10      89    52.8     21.14        56.2      57.7      55.9       0       1     293     292    1013    0.00
    10/14/2017 01:20      88    53.0     21.14        56.3      57.7      55.7       0       2     315     326    1013    0.00
    10/14/2017 01:30      89    52.7     21.14        55.9      57.7      55.4       0       2     322     327    1013    0.00
    10/14/2017 01:40      89    53.0     21.14        56.2      57.7      55.4       0       2     304     315    1013    0.00
    10/14/2017 01:50      89    52.9     21.14        56.1      57.7      55.4       0       2     321     344    1013    0.00
    10/14/2017 02:00      89    52.5     21.14        55.7      57.7      55.3       0       2     302     291    1013    0.00
    10/14/2017 02:10      89    52.1     21.14        55.4      57.7      54.6       1       2     299     327    1013    0.00
    10/14/2017 02:20      89    51.9     21.14        55.1      57.7      54.5       0       2     300     288    1013    0.00
    10/14/2017 02:30      90    52.1     21.14        55.2      57.7      54.5       0       1     305     309    1013    0.00
    10/14/2017 02:40      90    52.8     21.14        55.8      57.7      54.5       1       3     310     338    1013    0.00
    10/14/2017 02:50      89    53.1     21.14        56.1      57.7      54.5       0       2     319     330    1013    0.00
    10/14/2017 03:00      90    52.7     21.14        55.8      57.7      54.5       0       2     321     320    1013    0.00
    10/14/2017 03:10      89    52.3     21.14        55.4      57.7      54.5       0       2     321     302    1013    0.00
    10/14/2017 03:20      89    51.8     21.14        54.9      57.7      54.2       0       1     314     314    1013    0.00
    10/14/2017 03:30      89    51.3     21.14        54.4      57.7      54.2       0       1     317     332    1013    0.00
    10/14/2017 03:40      89    51.2     21.14        54.3      57.7      53.9       0       0     226     226    1014    0.00
    10/14/2017 03:50      90    50.9     21.14        53.9      57.7      53.6       0       1     146     150    1014    0.00
    10/14/2017 04:00      89    50.8     21.14        53.9      57.7      53.6       0       2     128     132    1014    0.00
    10/14/2017 04:10      89    50.4     21.14        53.4      57.7      53.1       0       0       0     151    1014    0.00
    10/14/2017 04:20      90    50.5     21.14        53.5      57.7      53.1       1       2     318     302    1014    0.00
    10/14/2017 04:30      89    49.7     21.14        52.7      57.7      52.4       0       1     274     249    1014    0.00
    10/14/2017 04:40      90    49.3     21.14        52.3      57.7      52.1       0       2     249     246    1014    0.00
    10/14/2017 04:50      90    49.1     21.14        52.1      57.7      51.8       0       2     305     290    1014    0.00
    10/14/2017 05:00      90    49.3     21.14        52.2      57.7      51.8       1       2     306     290    1014    0.00
    10/14/2017 05:10      90    49.4     21.14        52.3      57.7      51.8       0       2     299     288    1014    0.00
    10/14/2017 05:20      90    48.9     21.14        51.8      57.7      51.5       0       2     284     259    1014    0.00
    10/14/2017 05:30      90    48.8     21.14        51.7      57.7      51.5       0       2     284     290    1014    0.00
    10/14/2017 05:40      90    48.5     21.14        51.4      57.7      51.1       1       2     291     285    1014    0.00
    10/14/2017 05:50      90    48.6     21.14        51.5      57.7      51.1       0       2     302     292    1014    0.00
    10/14/2017 06:00      90    48.6     21.14        51.6      57.7      51.1       0       1     317     331    1014    0.00
    10/14/2017 06:10      90    48.6     21.14        51.5      57.7      51.1       1       2      89      91    1014    0.00
    10/14/2017 06:20      90    48.8     21.14        51.8      57.7      51.1       0       1     114     100    1014    0.00
    10/14/2017 06:30      90    49.3     21.14        52.2      57.7      51.1       0       1     322      83    1014    0.00
    10/14/2017 06:40      90    50.2     21.14        53.1      57.7      51.1       0       2      81      87    1014    0.00
    10/14/2017 06:50      90    50.6     21.14        53.5      57.7      51.1       0       3     263     336    1014    0.00
    10/14/2017 07:00      90    52.2     21.14        55.1      57.7      51.1       0       2     160     181    1014    0.00
    10/14/2017 07:10      89    52.8     21.14        55.8      57.7      51.1       0       2     268     275    1014    0.00
    10/14/2017 07:20      88    53.5     21.14        56.8      57.7      51.1       0       2     242     277    1014    0.00
    10/14/2017 07:30      86    54.5     21.14        58.3      59.3      51.1       0       0     268     262    1014    0.00
    10/14/2017 07:40      77    53.4     21.14        59.2      59.7      51.1       0       2     234     232    1014    0.00
    10/14/2017 07:50      69    52.6     21.14        60.9      61.9      51.1       1       3     227     200    1015    0.00
    10/14/2017 08:00      63    51.6     21.14        62.9      64.3      51.1       2       4     171     151    1015    0.00
    10/14/2017 08:10      59    50.5     21.14        64.8      65.0      51.1       3       6     158     154    1015    0.00
    10/14/2017 08:20      55    50.2     21.14        65.4      66.0      51.1       3       6     149     146    1015    0.00
    10/14/2017 08:30      52    49.9     21.14        66.5      67.3      51.1       4       6     156     161    1015    0.00
    10/14/2017 08:40      50    49.7     21.14        67.5      68.6      51.1       3       7     150     152    1015    0.00
    10/14/2017 08:50      47    48.7     21.14        69.5      70.1      51.1       4       7     155     156    1015    0.00
    10/14/2017 09:00      43    48.3     21.14        71.5      72.6      51.1       3       5     157     177    1015    0.00
    10/14/2017 09:10      39    48.0     21.14        73.8      74.9      51.1       3       6     163     159    1015    0.00
    10/14/2017 09:20      35    46.5     21.14        75.4      75.9      51.1       3       6     153     146    1015    0.00
    10/14/2017 09:30      29    44.7     21.14        76.1      76.6      51.1       3       6     129     149    1015    0.00
    10/14/2017 09:40      30    42.9     21.14        76.7      77.0      51.1       3       7     108     165    1015    0.00
    10/14/2017 09:50      29    43.8     21.14        77.6      78.4      51.1       3       5     121      96    1015    0.00
    10/14/2017 10:00      22    40.6     21.14        79.3      80.4      51.1       2       6     102      93    1014    0.00
    10/14/2017 10:10      21    38.4     21.14        80.5      81.0      51.1       3       5      86      92    1014    0.00
    10/14/2017 10:20      19    33.6     21.14        81.5      82.4      51.1       3       7      57      35    1015    0.00
    10/14/2017 10:30      10    31.2     21.14        82.5      83.2      51.1       3       9      46     325    1015    0.00
    10/14/2017 10:40       8    19.7     21.14        84.3      85.2      51.1       3      10     354     324    1014    0.00
    10/14/2017 10:50       8    17.4     21.14        85.1      85.6      51.1       4      12     343     324    1014    0.00
    10/14/2017 11:00       8    16.8     21.14        85.3      85.9      51.1       5      15     335     326    1014    0.00
    10/14/2017 11:10       8    16.2     21.14        84.8      85.9      51.1       6      15     331     347    1014    0.00
    10/14/2017 11:20       8    16.1     21.14        85.2      85.9      51.1       6      15     330     350    1014    0.00
    10/14/2017 11:30       8    16.8     21.14        85.5      86.1      51.1       5      14     336     332    1014    0.00
    10/14/2017 11:40       7    16.8     21.14        86.4      86.8      51.1       5      13     330     318    1014    0.00
    10/14/2017 11:50       7    16.4     21.14        86.6      86.9      51.1       6      13     331     341    1014    0.00
    10/14/2017 12:00       7    17.2     21.14        86.8      87.1      51.1       5      12     327     296    1014    0.00
    10/14/2017 12:10       8    17.1     21.14        86.7      87.1      51.1       5      15     330     355    1014    0.00
    10/14/2017 12:20       8    17.8     21.14        87.5      88.3      51.1       4      11     338     347    1014    0.00
    10/14/2017 12:30       7    17.3     21.14        89.2      90.1      51.1       3      11     339     338    1014    0.00
    10/14/2017 12:40       7    17.1     21.14        88.5      90.1      51.1       1       6     333     279    1014    0.00
    10/14/2017 12:50       7    19.4     21.14        89.3      90.1      51.1       2       7     201     103    1014    0.00
    10/14/2017 13:00       7    19.0     21.14        89.8      90.3      51.1       3       8     309     287    1014    0.00
    10/14/2017 13:10       7    18.5     21.14        89.8      90.3      51.1       5      15     319     332    1014    0.00
    10/14/2017 13:20       7    17.7     21.14        89.8      90.3      51.1       3       8      41      69    1014    0.00
    10/14/2017 13:30       6    16.7     21.14        90.1      90.4      51.1       4      12      20     319    1013    0.00
    10/14/2017 13:40       6    15.5     21.14        90.4      90.8      51.1       5       9     343      -0    1013    0.00
    10/14/2017 13:50       6    15.2     21.14        90.2      90.8      51.1       5      10      12      51    1013    0.00
    10/14/2017 14:00       6    15.3     21.14        90.6      91.2      51.1       3       9     336       0    1013    0.00
    10/14/2017 14:10       6    16.0     21.14        90.8      91.2      51.1       4      10     344     325    1013    0.00
    10/14/2017 14:20       6    14.8     21.14        91.0      91.3      51.1       3       9     327     332    1013    0.00
    10/14/2017 14:30       6    13.8     21.14        90.6      91.3      51.1       4      10     334     329    1013    0.00
    10/14/2017 14:40       5    14.4     21.14        91.5      92.1      51.1       3       7     338      57    1013    0.00
    10/14/2017 14:50       6    13.3     21.14        90.9      92.1      51.1       4      12     353     350    1013    0.00
    10/14/2017 15:00       6    13.7     21.14        91.2      92.1      51.1       3       8     353     350    1013    0.00
    10/14/2017 15:10       6    12.8     21.14        91.4      92.1      51.1       4      10     350     349    1013    0.00
    10/14/2017 15:20       5    12.1     21.14        90.8      92.1      51.1       5      12     350       4    1013    0.00
    10/14/2017 15:30       6    12.4     21.14        90.2      92.1      51.1       4      11     357       9    1013    0.00
    10/14/2017 15:40       5    12.0     21.14        90.2      92.1      51.1       4      11     346     343    1013    0.00
    10/14/2017 15:50       6    12.1     21.14        89.9      92.1      51.1       4      11     356     347    1013    0.00
    10/14/2017 16:00       5    12.4     21.14        89.1      92.1      51.1       4      11     349     340    1013    0.00
    10/14/2017 16:10       5    11.7     21.14        88.7      92.1      51.1       5      14     346      19    1013    0.00
    10/14/2017 16:20       6    11.3     21.14        88.2      92.1      51.1       5      12     354       0    1013    0.00
    10/14/2017 16:30       6    11.5     21.14        87.9      92.1      51.1       4       8     346     344    1013    0.00
    10/14/2017 16:40       6    11.7     21.14        87.3      92.1      51.1       3      10     343     302    1013    0.00
    10/14/2017 16:50       6    10.6     21.14        86.9      92.1      51.1       4       9     342     343    1013    0.00
    10/14/2017 17:00       6    11.6     21.14        86.3      92.1      51.1       3       7     338     312    1013    0.00
    10/14/2017 17:10       6    10.8     21.14        85.4      92.1      51.1       3       9     338     345    1013    0.00
    10/14/2017 17:20       6    10.1     21.14        84.8      92.1      51.1       3       9     339      13    1013    0.00
    10/14/2017 17:30       6     9.6     21.14        84.1      92.1      51.1       4      10     338     339    1013    0.00
    10/14/2017 17:40       6     9.2     21.14        83.6      92.1      51.1       3      10     341     330    1013    0.00
    10/14/2017 17:50       6     9.2     21.14        83.0      92.1      51.1       3       9     348       6    1013    0.00
    10/14/2017 18:00       6     9.0     21.14        82.6      92.1      51.1       3      10     352     338    1013    0.00
    10/14/2017 18:10       6     8.9     21.14        82.6      92.1      51.1       4       9     353     349    1013    0.00
    10/14/2017 18:20       6     9.2     21.14        82.4      92.1      51.1       4       9     358     333    1013    0.00
    10/14/2017 18:30       6     9.5     21.14        81.8      92.1      51.1       4      10     354      10    1014    0.00
    10/14/2017 18:40       7     9.9     21.14        81.5      92.1      51.1       3       8     357      10    1014    0.00
    10/14/2017 18:50       7     9.9     21.14        80.9      92.1      51.1       3       8     347     332    1014    0.00
    10/14/2017 19:00       6     9.4     21.14        80.8      92.1      51.1       3       8     341       0    1014    0.00
    10/14/2017 19:10       6     9.1     21.14        80.6      92.1      51.1       4      10     339     328    1014    0.00
    10/14/2017 19:20       6     8.8     21.14        80.7      92.1      51.1       4      11     336     338    1014    0.00
    10/14/2017 19:30       6     8.8     21.14        80.5      92.1      51.1       4      10     346      -0    1014    0.00
    10/14/2017 19:40       7     9.0     21.14        80.2      92.1      51.1       4      11     348     312    1014    0.00
    10/14/2017 19:50       7     9.0     21.14        80.0      92.1      51.1       4      10     349     353    1014    0.00
    10/14/2017 20:00       7     9.3     21.14        79.6      92.1      51.1       3       8     347     336    1014    0.00
    10/14/2017 20:10       7     9.5     21.14        79.2      92.1      51.1       3      12     347     354    1014    0.00
    10/14/2017 20:20       7     9.3     21.14        78.8      92.1      51.1       3       8     351      29    1015    0.00
    10/14/2017 20:30       7     9.3     21.14        78.8      92.1      51.1       4       9     359     341    1015    0.00
    10/14/2017 20:40       7     9.9     21.14        78.6      92.1      51.1       3       6       6       0    1015    0.00
    10/14/2017 20:50       7    10.1     21.14        78.0      92.1      51.1       3       7      27       0    1015    0.00
    10/14/2017 21:00       7     9.5     21.14        78.4      92.1      51.1       3       6      34      15    1015    0.00
    10/14/2017 21:10       7     9.8     21.14        78.2      92.1      51.1       2       6      50      28    1015    0.00
    10/14/2017 21:20      13    14.1     21.14        76.9      92.1      51.1       1       3      87      46    1015    0.00
    10/14/2017 21:30      24    22.9     21.14        73.3      92.1      51.1       0       4      77      14    1015    0.00
    10/14/2017 21:40      20    29.6     21.14        71.4      92.1      51.1       1       6      57       0    1015    0.00
    10/14/2017 21:50      25    31.1     21.14        70.0      92.1      51.1       0       3     352       1    1015    0.00
    10/14/2017 22:00      35    34.4     21.14        69.3      92.1      51.1       2       4     127     170    1015    0.00
    10/14/2017 22:10      47    43.8     21.14        68.7      92.1      51.1       2       5     123     146    1015    0.00
    10/14/2017 22:20      35    45.9     21.14        69.3      92.1      51.1       2       5      59     351    1015    0.00
    10/14/2017 22:30      10    25.4     21.14        71.1      92.1      51.1       3       8       2     345    1015    0.00
    10/14/2017 22:40       8    12.0     21.14        75.3      92.1      51.1       4       9     347     352    1015    0.00
    10/14/2017 22:50       9    11.5     21.14        76.2      92.1      51.1       3       9     342     333    1015    0.00
    10/14/2017 23:00      14    13.6     21.14        75.0      92.1      51.1       1       3      47      36    1015    0.00
    10/14/2017 23:10      41    37.5     21.14        70.7      92.1      51.1       2       4     135     143    1015    0.00
    10/14/2017 23:20      45    44.1     21.14        67.7      92.1      51.1       1       3     154     154    1015    0.00
    10/14/2017 23:30      45    44.2     21.14        66.2      92.1      51.1       0       1     128     155    1015    0.00
    10/14/2017 23:40      14    33.3     21.14        65.9      92.1      51.1       2       8     359     341    1016    0.00
    10/14/2017 23:50       8    13.2     21.14        73.1      92.1      51.1       5      11       0      66    1016    0.00
    10/15/2017 00:00       8    10.9     21.14        76.2      92.1      51.1       4      10     359     349    1016    0.00
    10/15/2017 00:10       8    10.9     21.14        76.1      76.5      75.8       3       8     341       1    1016    0.00
    10/15/2017 00:20       8    11.1     21.14        76.0      76.5      75.7       3      10     356      15    1016    0.00
    10/15/2017 00:30       8    10.8     21.14        76.1      76.5      75.6       3       8     351      19    1016    0.00
    10/15/2017 00:40       8    10.8     21.14        75.7      76.5      75.4       3       7     356     340    1016    0.00
    10/15/2017 00:50       8    11.1     21.14        75.7      76.5      75.3       2       7     348     306    1016    0.00
    10/15/2017 01:00      11    14.8     21.14        74.0      76.5      72.3       1       6     243      -0    1016    0.00
    10/15/2017 01:10      11    15.0     21.14        71.6      76.5      70.8       0       2     147     154    1016    0.00
    10/15/2017 01:20      10    13.9     21.14        71.3      76.5      70.5       2       5      37       6    1016    0.00
    10/15/2017 01:30      10    12.0     21.14        73.0      76.5      70.5       2       5     360      19    1016    0.00
    10/15/2017 01:40       9    11.7     21.14        73.3      76.5      70.5       3      10     341     306    1016    0.00
    10/15/2017 01:50       9    11.2     21.14        74.2      76.5      70.5       2      10     351     331    1016    0.00
    10/15/2017 02:00       9    10.9     21.14        74.4      76.5      70.5       3      11     339     321    1016    0.00
    10/15/2017 02:10       8    10.8     21.14        74.6      76.5      70.5       3      11     341     323    1016    0.00
    10/15/2017 02:20       9    11.1     21.14        74.8      76.5      70.5       3       8     343     341    1016    0.00
    10/15/2017 02:30       9    11.3     21.14        74.3      76.5      70.5       3       6     321       1    1016    0.00
    10/15/2017 02:40      15    17.3     21.14        72.4      76.5      69.8       2       3     145     154    1016    0.00
    10/15/2017 02:50      16    19.5     21.14        68.9      76.5      68.4       2       7     193     313    1016    0.00
    10/15/2017 03:00      16    20.4     21.14        67.3      76.5      66.5       1       3     168     168    1016    0.00
    10/15/2017 03:10      16    20.0     21.14        67.6      76.5      66.5       0       3     189      68    1016    0.00
    10/15/2017 03:20      10    14.1     21.14        69.3      76.5      66.5       2       7     332     333    1016    0.00
    10/15/2017 03:30       9    11.4     21.14        72.8      76.5      66.5       3      12     342     343    1016    0.00
    10/15/2017 03:40       8    10.5     21.14        74.4      76.5      66.5       5      12     346     354    1016    0.00
    10/15/2017 03:50       8    10.4     21.14        74.9      76.5      66.5       3       9     342     330    1016    0.00
    10/15/2017 04:00       8    10.3     21.14        74.5      76.5      66.5       3      11     346     340    1016    0.00
    10/15/2017 04:10       8    10.2     21.14        74.4      76.5      66.5       3      10     344     339    1016    0.00
    10/15/2017 04:20       9    10.0     21.14        74.3      76.5      66.5       3      11     345      19    1016    0.00
    10/15/2017 04:30       8     9.9     21.14        73.9      76.5      66.5       3      10     351      16    1016    0.00
    10/15/2017 04:40       8     9.7     21.14        74.3      76.5      66.5       4      12     341     315    1016    0.00
    10/15/2017 04:50       8     9.6     21.14        74.4      76.5      66.5       4      13     339     328    1016    0.00
    10/15/2017 05:00       8     9.8     21.14        74.3      76.5      66.5       4      14     340     326    1016    0.00
    10/15/2017 05:10       9     9.7     21.14        74.0      76.5      66.5       4      10     339     345    1016    0.00
    10/15/2017 05:20       8     9.8     21.14        73.9      76.5      66.5       4      14     345     336    1016    0.00
    10/15/2017 05:30       8     9.5     21.14        74.0      76.5      66.5       4      14     338     349    1016    0.00
    10/15/2017 05:40       8     9.4     21.14        74.3      76.5      66.5       5      15     349     346    1016    0.00
    10/15/2017 05:50       8     9.3     21.14        74.2      76.5      66.5       5      12     337     328    1016    0.00
    10/15/2017 06:00       8     9.5     21.14        74.1      76.5      66.5       4      13     342      33    1017    0.00
    10/15/2017 06:10       8     9.7     21.14        73.7      76.5      66.5       4      16     343     353    1017    0.00
    10/15/2017 06:20       8     9.7     21.14        73.7      76.5      66.5       5      13     338     328    1017    0.00
    10/15/2017 06:30       8     9.9     21.14        73.6      76.5      66.5       5      13     340     345    1017    0.00
    10/15/2017 06:40       9    10.2     21.14        73.8      76.5      66.5       5      16     338     338    1017    0.00
    10/15/2017 06:50       8    10.4     21.14        74.2      76.5      66.5       5      17     343     297    1017    0.00
    10/15/2017 07:00       9    10.8     21.14        74.7      76.5      66.5       6      13     341     299    1017    0.00
    10/15/2017 07:10       8    10.9     21.14        75.0      76.5      66.5       6      14     345     333    1017    0.00
    10/15/2017 07:20       8    11.0     21.14        75.6      76.5      66.5       6      18     339     340    1017    0.00
    10/15/2017 07:30       8    10.9     21.14        76.0      76.5      66.5       6      17     344     323    1017    0.00
    10/15/2017 07:40       9    11.0     21.14        76.2      76.6      66.5       6      18     339     324    1018    0.00
    10/15/2017 07:50       8    11.3     21.14        76.8      77.1      66.5       5      11     338     354    1018    0.00
    10/15/2017 08:00       8    11.2     21.14        77.3      77.8      66.5       6      13     335     320    1018    0.00
    10/15/2017 08:10       8    11.1     21.14        77.9      78.4      66.5       6      18     336     342    1018    0.00
    10/15/2017 08:20       7    11.0     21.14        78.5      78.9      66.5       6      16     338     318    1018    0.00
    10/15/2017 08:30       7    10.8     21.14        78.9      79.3      66.5       6      13     337     305    1018    0.00
    10/15/2017 08:40       7    11.0     21.14        79.6      80.2      66.5       6      15     335     350    1018    0.00
    10/15/2017 08:50       7    10.9     21.14        80.4      80.8      66.5       6      16     333     342    1018    0.00
    10/15/2017 09:00       7    10.8     21.14        81.1      81.4      66.5       7      16     333       0    1018    0.00
    10/15/2017 09:10       7    11.1     21.14        81.7      82.4      66.5       5      18     328     343    1018    0.00
    10/15/2017 09:20       6    10.2     21.14        82.4      82.9      66.5       6      18     332     350    1018    0.00
    10/15/2017 09:30       6     9.7     21.14        82.3      82.9      66.5       7      14     336     337    1018    0.00
    10/15/2017 09:40       6    10.2     21.14        82.9      83.5      66.5       6      14     326     355    1018    0.00
    10/15/2017 09:50       6    10.9     21.14        83.6      83.9      66.5       5      15     330     347    1018    0.00
    10/15/2017 10:00       6    10.5     21.14        83.7      84.1      66.5       6      16     328     337    1018    0.00
    10/15/2017 10:10       6    11.0     21.14        84.3      84.9      66.5       5      16     325     346    1018    0.00
    10/15/2017 10:20       6    11.0     21.14        84.9      85.3      66.5       5      16     332     339    1018    0.00
    10/15/2017 10:30       6    10.7     21.14        85.3      85.7      66.5       6      15     331     330    1018    0.00
    10/15/2017 10:40       6    10.6     21.14        85.6      86.0      66.5       7      15     330     333    1018    0.00
    10/15/2017 10:50       6    11.0     21.14        86.0      86.6      66.5       5      12     319     343    1018    0.00
    10/15/2017 11:00       5    11.2     21.14        87.1      87.9      66.5       5      11     334     324    1018    0.00
    10/15/2017 11:10       5    10.5     21.14        87.4      87.9      66.5       6      14     328     328    1018    0.00
    10/15/2017 11:20       5    11.1     21.14        87.9      88.3      66.5       5      15     329     355    1018    0.00
    10/15/2017 11:30       6    10.8     21.14        88.4      89.1      66.5       5      14     338     311    1018    0.00
    10/15/2017 11:40       5    11.7     21.14        89.5      90.3      66.5       4      12     339     325    1018    0.00
    10/15/2017 11:50       5    10.8     21.14        88.8      90.3      66.5       6      15     328       7    1018    0.00
    10/15/2017 12:00       6    10.9     21.14        88.7      90.3      66.5       5      13     321     329    1018    0.00
    10/15/2017 12:10       5    12.0     21.14        89.5      90.3      66.5       4      13     330     324    1017    0.00
    10/15/2017 12:20       6    12.7     21.14        90.8      91.6      66.5       3      11     326     325    1017    0.00
    10/15/2017 12:30       5    11.4     21.14        90.1      91.6      66.5       5      14     328     329    1017    0.00
    10/15/2017 12:40       5    11.5     21.14        90.1      91.6      66.5       4      13     324     320    1017    0.00
    10/15/2017 12:50       5    11.2     21.14        90.3      91.6      66.5       5      14     327       4    1017    0.00
    10/15/2017 13:00       5    12.1     21.14        91.1      92.2      66.5       4      13     339     335    1017    0.00
    10/15/2017 13:10       5    11.9     21.14        91.3      92.2      66.5       4      14     324     328    1017    0.00
    10/15/2017 13:20       5    12.0     21.14        91.8      92.2      66.5       4      13     336     335    1016    0.00
    10/15/2017 13:30       5    11.1     21.14        91.6      92.2      66.5       6      13     338     321    1016    0.00
    10/15/2017 13:40       5    10.6     21.14        91.2      92.2      66.5       5      13     337     340    1016    0.00
    10/15/2017 13:50       5    10.5     21.14        91.3      92.2      66.5       6      15     330     350    1016    0.00
    10/15/2017 14:00       4    10.0     21.14        91.2      92.2      66.5       6      16     328     339    1016    0.00
    10/15/2017 14:10       5    10.1     21.14        91.4      92.2      66.5       5      16     328      24    1016    0.00
    10/15/2017 14:20       4     9.2     21.14        91.6      92.2      66.5       6      14     333     321    1016    0.00
    10/15/2017 14:30       5     9.2     21.14        91.6      92.2      66.5       5      16     340     296    1016    0.00
    10/15/2017 14:40       4     8.8     21.14        91.7      92.2      66.5       5      17     330     347    1016    0.00
    10/15/2017 14:50       5     9.0     21.14        91.6      92.2      66.5       6      18     334     294    1016    0.00
    10/15/2017 15:00       4     8.3     21.14        91.6      92.3      66.5       5      15     331      35    1016    0.00
    10/15/2017 15:10       4     8.7     21.14        91.8      92.3      66.5       5      10     337     265    1016    0.00
    10/15/2017 15:20       4     8.1     21.14        91.6      92.3      66.5       6      15     337     346    1016    0.00
    10/15/2017 15:30       4     8.2     21.14        91.3      92.3      66.5       5      12     334     354    1016    0.00
    10/15/2017 15:40       4     7.5     21.14        90.9      92.3      66.5       6      13     333     340    1016    0.00
    10/15/2017 15:50       5     7.5     21.14        90.3      92.3      66.5       6      16     341     331    1016    0.00
    10/15/2017 16:00       4     8.1     21.14        89.9      92.3      66.5       5      12     342     303    1015    0.00
    10/15/2017 16:10       4     7.6     21.14        89.5      92.3      66.5       4      13     336     336    1015    0.00
    10/15/2017 16:20       4     7.8     21.14        89.1      92.3      66.5       4      10     329     342    1015    0.00
    10/15/2017 16:30       5     7.2     21.14        88.7      92.3      66.5       5      17     332     337    1015    0.00
    10/15/2017 16:40       5     7.2     21.14        88.3      92.3      66.5       5      13     338     311    1015    0.00
    10/15/2017 16:50       5     7.7     21.14        87.7      92.3      66.5       5      14     337     324    1015    0.00
    10/15/2017 17:00       5     7.5     21.14        86.9      92.3      66.5       5      11     337     276    1015    0.00
    10/15/2017 17:10       5     6.7     21.14        86.6      92.3      66.5       5      12     345      20    1016    0.00
    10/15/2017 17:20       5     6.5     21.14        86.0      92.3      66.5       5      19     334     320    1016    0.00
    10/15/2017 17:30       5     6.0     21.14        85.5      92.3      66.5       4      12     340     339    1016    0.00
    10/15/2017 17:40       5     5.8     21.14        85.1      92.3      66.5       4      12     338       0    1016    0.00
    10/15/2017 17:50       5     5.7     21.14        84.5      92.3      66.5       5      13     340     334    1016    0.00
    10/15/2017 18:00       5     5.7     21.14        84.4      92.3      66.5       5      14     333     337    1016    0.00
    10/15/2017 18:10       5     5.2     21.14        84.2      92.3      66.5       5      12     337     342    1016    0.00
    10/15/2017 18:20       5     5.3     21.14        83.7      92.3      66.5       4      12     339     343    1016    0.00
    10/15/2017 18:30       5     5.2     21.14        83.3      92.3      66.5       5      12     337     340    1016    0.00
    10/15/2017 18:40       5     5.4     21.14        83.1      92.3      66.5       4      11     342     340    1016    0.00
    10/15/2017 18:50       5     5.1     21.14        82.9      92.3      66.5       4      10     338     321    1016    0.00
    10/15/2017 19:00       5     5.3     21.14        82.6      92.3      66.5       4      10     334     331    1017    0.00
    10/15/2017 19:10       5     5.1     21.14        82.4      92.3      66.5       4      12     342     350    1017    0.00
    10/15/2017 19:20       5     5.3     21.14        82.0      92.3      66.5       3      10     338     329    1017    0.00
    10/15/2017 19:30       6     6.3     21.14        81.2      92.3      66.5       1       4      38     282    1017    0.00
    10/15/2017 19:40       6     7.8     21.14        80.1      92.3      66.5       1       3      68     287    1017    0.00
    10/15/2017 19:50       8     9.6     21.14        78.8      92.3      66.5       2       5     316     336    1017    0.00
    10/15/2017 20:00       8    10.7     21.14        77.5      92.3      66.5       1       3     208     177    1017    0.00
    10/15/2017 20:10       8    10.6     21.14        76.3      92.3      66.5       0       2     164     183    1017    0.00
    10/15/2017 20:20       9    11.2     21.14        75.0      92.3      66.5       0       2     291     349    1017    0.00
    10/15/2017 20:30      10    12.8     21.14        73.5      92.3      66.5       0       1     111     119    1017    0.00
    10/15/2017 20:40      11    13.6     21.14        72.2      92.3      66.5       0       2      97      90    1017    0.00
    10/15/2017 20:50      11    15.1     21.14        71.8      92.3      66.5       0       2      87      90    1017    0.00
    10/15/2017 21:00      12    15.3     21.14        71.4      92.3      66.5       0       1      87      96    1017    0.00
    10/15/2017 21:10      12    15.7     21.14        70.7      92.3      66.5       0       2     149     116    1018    0.00
    10/15/2017 21:20      12    16.5     21.14        70.0      92.3      66.5       0       1     162     161    1018    0.00
    10/15/2017 21:30      14    16.5     21.14        69.0      92.3      66.5       0       2     180     211    1018    0.00
    10/15/2017 21:40      14    16.9     21.14        68.3      92.3      66.5       0       1     153     230    1018    0.00
    10/15/2017 21:50      15    18.3     21.14        68.2      92.3      66.5       0       0      38      38    1018    0.00
    10/15/2017 22:00      15    18.6     21.14        67.7      92.3      66.5       0       2     329     271    1018    0.00
    10/15/2017 22:10      17    20.1     21.14        67.3      92.3      66.5       1       3     291     259    1018    0.00
    10/15/2017 22:20      17    19.8     21.14        66.5      92.3      66.1       0       2     258     251    1018    0.00
    10/15/2017 22:30      17    20.0     21.14        66.1      92.3      65.8       0       1      11       4    1018    0.00
    10/15/2017 22:40      21    20.9     21.14        65.7      92.3      65.5       0       1     326     263    1018    0.00
    10/15/2017 22:50      21    25.0     21.14        65.0      92.3      64.6       1       3     263     252    1017    0.00
    10/15/2017 23:00      17    22.6     21.14        64.7      92.3      64.4       0       2     219     179    1017    0.00
    10/15/2017 23:10      22    22.4     21.14        64.8      92.3      64.4       0       1     160      65    1017    0.00
    10/15/2017 23:20      23    25.7     21.14        65.2      92.3      64.4       0       0     341     344    1017    0.00
    10/15/2017 23:30      22    24.9     21.14        64.5      92.3      63.8       0       2     194     202    1017    0.00
    10/15/2017 23:40      19    23.9     21.14        64.4      92.3      63.8       0       1     297     264    1017    0.00
    10/15/2017 23:50      23    24.6     21.14        64.6      92.3      63.8       0       0     257     350    1017    0.00
    10/16/2017 00:00      22    24.7     21.14        64.1      92.3      63.8       0       2      97      89    1017    0.00
    10/16/2017 00:10      24    24.9     21.14        63.7      64.1      63.4       0       1      99     110    1017    0.00
    10/16/2017 00:20      24    26.3     21.14        63.9      64.2      63.4       0       2      20     304    1017    0.00
    10/16/2017 00:30      23    26.1     21.14        63.3      64.2      62.9       0       2     249     188    1017    0.00
    10/16/2017 00:40      22    24.8     21.14        63.9      64.2      62.9       0       0       0     351    1017    0.00
    10/16/2017 00:50      24    25.1     21.14        63.9      64.2      62.9       0       1     129     149    1017    0.00
    10/16/2017 01:00      21    24.3     21.14        63.6      64.2      62.9       0       2     259     220    1018    0.00
    10/16/2017 01:10      23    24.7     21.14        63.9      64.2      62.9       0       2     263     277    1018    0.00
    10/16/2017 01:20      20    22.1     21.14        64.1      64.8      62.9       1       3     306     305    1018    0.00
    10/16/2017 01:30      19    22.3     21.14        64.3      64.9      62.9       0       2     255     286    1018    0.00
    10/16/2017 01:40      21    21.8     21.14        63.6      64.9      62.9       0       2     231     237    1018    0.00
    10/16/2017 01:50      17    20.6     21.14        63.5      64.9      62.9       0       2     222     217    1017    0.00
    10/16/2017 02:00      21    20.8     21.14        64.4      64.9      62.9       1       2     140     144    1018    0.00
    10/16/2017 02:10      21    23.9     21.14        64.1      64.9      62.9       1       2     121     106    1017    0.00
    10/16/2017 02:20      23    23.0     21.14        63.9      64.9      62.9       0       1      83      57    1017    0.00
    10/16/2017 02:30      22    25.6     21.14        62.6      64.9      62.1       0       3     258     245    1017    0.00
    10/16/2017 02:40      23    24.3     21.14        62.5      64.9      62.1       0       2      92      92    1017    0.00
    10/16/2017 02:50      25    25.2     21.14        62.2      64.9      61.7       0       2     112      79    1017    0.00
    10/16/2017 03:00      25    25.1     21.14        61.7      64.9      61.5       0       1     112      64    1017    0.00
    10/16/2017 03:10      24    24.9     21.14        61.7      64.9      61.5       0       0     173     183    1017    0.00
    10/16/2017 03:20      26    25.1     21.14        61.7      64.9      61.4       0       1     261     249    1017    0.00
    10/16/2017 03:30      23    24.2     21.14        61.8      64.9      61.1       1       2     298     296    1017    0.00
    10/16/2017 03:40      22    23.1     21.14        62.3      64.9      61.1       0       2     344     285    1017    0.00
    10/16/2017 03:50      26    24.5     21.14        62.2      64.9      61.1       1       4     291     250    1017    0.00
    10/16/2017 04:00      24    25.1     21.14        61.2      64.9      60.8       0       2     253     259    1017    0.00
    10/16/2017 04:10      23    22.9     21.14        61.1      64.9      60.8       0       0     277     271    1017    0.00
    10/16/2017 04:20      23    23.2     21.14        61.3      64.9      60.8       0       2     146     171    1017    0.00
    10/16/2017 04:30      24    23.3     21.14        61.4      64.9      60.8       0       2     108     137    1017    0.00
    10/16/2017 04:40      24    24.6     21.14        61.1      64.9      60.8       0       2     167     147    1017    0.00
    10/16/2017 04:50      23    24.2     21.14        61.1      64.9      60.8       0       2     302     281    1017    0.00
    10/16/2017 05:00      23    23.4     21.14        61.6      64.9      60.8       1       3     311     341    1017    0.00
    10/16/2017 05:10      23    24.1     21.14        61.8      64.9      60.8       1       3     323     324    1017    0.00
    10/16/2017 05:20      25    24.1     21.14        61.4      64.9      60.8       0       2     337     336    1017    0.00
    10/16/2017 05:30      23    24.1     21.14        61.0      64.9      60.7       0       3     338      -0    1017    0.00
    10/16/2017 05:40      25    23.4     21.14        61.6      64.9      60.7       0       3     317     344    1017    0.00
    10/16/2017 05:50      24    23.6     21.14        61.5      64.9      60.7       0       2     248     269    1017    0.00
    10/16/2017 06:00      23    23.9     21.14        61.2      64.9      60.7       0       1     240     220    1017    0.00
    10/16/2017 06:10      23    22.4     21.14        61.0      64.9      60.7       0       2     267     269    1017    0.00
    10/16/2017 06:20      18    21.0     21.14        61.7      64.9      60.7       0       3     286     226    1017    0.00
    10/16/2017 06:30      18    18.9     21.14        62.9      64.9      60.7       0       2     322     344    1017    0.00
    10/16/2017 06:40      18    19.9     21.14        63.5      64.9      60.7       0       2     277     286    1017    0.00
    10/16/2017 06:50      16    19.6     21.14        65.6      66.9      60.7       2       3     322     260    1017    0.00
    10/16/2017 07:00      15    18.7     21.14        68.8      69.7      60.7       0       2     332     338    1018    0.00
    10/16/2017 07:10      16    21.0     21.14        70.0      70.6      60.7       0       3     340     348    1018    0.00
    10/16/2017 07:20      15    23.9     21.14        72.2      73.2      60.7       0       2     182     143    1018    0.00
    10/16/2017 07:30      12    23.3     21.14        74.2      74.9      60.7       0       1     191     159    1018    0.00
    10/16/2017 07:40      11    19.3     21.14        75.8      76.6      60.7       2       3     160     151    1018    0.00
    10/16/2017 07:50      11    18.9     21.14        77.0      77.7      60.7       2       4     191     187    1018    0.00
    10/16/2017 08:00      10    17.9     21.14        78.1      78.6      60.7       1       3     256     248    1018    0.00
    10/16/2017 08:10      10    18.3     21.14        79.3      80.1      60.7       0       3     172     156    1018    0.00
    10/16/2017 08:20       9    18.1     21.14        80.6      81.0      60.7       1       2     187     187    1018    0.00
    10/16/2017 08:30      11    20.2     21.14        81.1      81.4      60.7       2       4     190     196    1018    0.00
    10/16/2017 08:40      11    22.0     21.14        81.2      81.7      60.7       2       4     184     186    1018    0.00
    10/16/2017 08:50      12    22.7     21.14        82.3      82.9      60.7       2       4     179     166    1018    0.00
    10/16/2017 09:00      11    23.7     21.14        83.3      84.1      60.7       2       4     177     160    1018    0.00
    10/16/2017 09:10      11    23.6     21.14        84.1      84.9      60.7       2       4     199     205    1018    0.00
    10/16/2017 09:20      11    25.0     21.14        86.3      87.8      60.7       2       4     179     158    1018    0.00
    10/16/2017 09:30      11    27.2     21.14        87.5      88.0      60.7       2       4     138     160    1018    0.00
    10/16/2017 09:40       6    18.1     21.14        89.2      90.8      60.7       2      10     334     303    1018    0.00
    10/16/2017 09:50       7    15.4     21.14        90.5      91.1      60.7       3       8     319     347    1018    0.00
    10/16/2017 10:00       6    15.6     21.14        91.2      91.4      60.7       4      11     325      28    1018    0.00
    10/16/2017 10:10       6    15.6     21.14        91.7      92.2      60.7       4      12     339     335    1017    0.00
    10/16/2017 10:20       6    15.8     21.14        92.0      92.9      60.7       4      11     324     340    1017    0.00
    10/16/2017 10:30       6    16.1     21.14        92.6      93.0      60.7       3       9     317     340    1017    0.00
    10/16/2017 10:40       6    16.6     21.14        92.8      93.6      60.7       4      10     340     342    1017    0.00
    10/16/2017 10:50       6    15.8     21.14        93.1      93.8      60.7       5      13     349     348    1017    0.00
    10/16/2017 11:00       6    16.1     21.14        93.7      94.1      60.7       4      12     343     339    1017    0.00
    10/16/2017 11:10       6    15.9     21.14        93.7      94.1      60.7       5      13     339     348    1017    0.00
    10/16/2017 11:20       5    16.4     21.14        94.4      95.0      60.7       3       9     352       0    1017    0.00
    10/16/2017 11:30       6    17.0     21.14        95.0      95.2      60.7       3      11     349      12    1017    0.00
    10/16/2017 11:40       5    15.8     21.14        94.9      95.4      60.7       4      11      15     321    1017    0.00
    10/16/2017 11:50       5    16.4     21.14        95.2      96.5      60.7       3      10     352      18    1016    0.00
    10/16/2017 12:00       5    16.2     21.14        96.2      96.6      60.7       4      12     354       3    1016    0.00
    10/16/2017 12:10       5    16.4     21.14        96.1      96.6      60.7       4      11     349     328    1016    0.00
    10/16/2017 12:20       6    16.0     21.14        95.8      96.6      60.7       5      11       3      40    1016    0.00
    10/16/2017 12:30       6    16.5     21.14        96.4      97.0      60.7       4      10     344     299    1016    0.00
    10/16/2017 12:40       6    17.0     21.14        96.4      97.0      60.7       5      11     352     339    1016    0.00
    10/16/2017 12:50       6    17.3     21.14        96.5      97.0      60.7       4      11     359     351    1015    0.00
    10/16/2017 13:00       5    17.6     21.14        97.7      98.1      60.7       4       9     344     326    1015    0.00
    10/16/2017 13:10       6    18.4     21.14        97.8      98.1      60.7       3      10     328     310    1015    0.00
    10/16/2017 13:20       6    20.5     21.14        97.9      98.2      60.7       3       9     324      15    1015    0.00
    10/16/2017 13:30       6    19.1     21.14        97.8      98.4      60.7       4      10     332     341    1015    0.00
    10/16/2017 13:40       6    19.7     21.14        97.9      98.7      60.7       2      10     335       4    1015    0.00
    10/16/2017 13:50       5    16.9     21.14        97.8      98.7      60.7       4       9       0       0    1015    0.00
    10/16/2017 14:00       5    16.1     21.14        97.4      98.7      60.7       4       9       3     343    1015    0.00
    10/16/2017 14:10       5    18.3     21.14        97.8      98.7      60.7       3       7     346     340    1015    0.00
    10/16/2017 14:20       6    17.1     21.14        97.8      98.7      60.7       3       8     321      14    1015    0.00
    10/16/2017 14:30       6    18.7     21.14        97.8      98.7      60.7       4       9     326     332    1015    0.00
    10/16/2017 14:40       5    18.0     21.14        97.7      98.7      60.7       3       9     341     329    1014    0.00
    10/16/2017 14:50       5    16.6     21.14        97.5      98.7      60.7       3       8     332      10    1014    0.00
    10/16/2017 15:00       5    17.0     21.14        97.8      98.7      60.7       3      13     340     333    1014    0.00
    10/16/2017 15:10       6    17.6     21.14        97.6      98.7      60.7       3       7     312     295    1014    0.00
    10/16/2017 15:20       7    23.2     21.14        97.1      98.7      60.7       2       5     269     257    1014    0.00
    10/16/2017 15:30       7    22.1      0.00        96.4      98.7      60.7       4      11     292     235    1014    0.00
    10/16/2017 15:40       8    22.6      0.00        94.9      98.7      60.7       4      11     274     259    1014    0.00
    10/16/2017 15:50       8    24.0      0.00        93.7      98.7      60.7       5      10     272     246    1014    0.00
    10/16/2017 16:00       8    23.8      0.00        92.6      98.7      60.7       4       9     276     274    1014    0.00
    10/16/2017 16:10       8    23.4      0.00        92.1      98.7      60.7       4       9     281     273    1014    0.00
    10/16/2017 16:20       7    21.8      0.00        91.3      98.7      60.7       4      10     276     282    1014    0.00
    10/16/2017 16:30       7    18.6      0.00        90.7      98.7      60.7       4       8     275     232    1014    0.00
    10/16/2017 16:40       7    17.3      0.00        90.0      98.7      60.7       5       9     272     248    1014    0.00
    10/16/2017 16:50       7    17.4      0.00        89.4      98.7      60.7       4       9     267     250    1014    0.00
    10/16/2017 17:00       8    18.1      0.00        88.6      98.7      60.7       4       9     263     247    1014    0.00
    10/16/2017 17:10       9    19.9      0.00        87.5      98.7      60.7       4       7     254     250    1014    0.00
    10/16/2017 17:20       9    21.5      0.00        86.1      98.7      60.7       4       5     255     252    1014    0.00
    10/16/2017 17:30      10    21.1      0.00        85.1      98.7      60.7       4       7     248     248    1014    0.00
    10/16/2017 17:40      11    21.7      0.00        84.4      98.7      60.7       2       6     241     258    1014    0.00
    10/16/2017 17:50      12    23.4      0.00        82.7      98.7      60.7       2       6     240     268    1014    0.00
    10/16/2017 18:00      11    23.3      0.00        82.1      98.7      60.7       4       8     254     253    1015    0.00
    10/16/2017 18:10      11    22.2      0.00        83.0      98.7      60.7       4       6     259     249    1015    0.00
    10/16/2017 18:20      12    23.1      0.00        82.4      98.7      60.7       2       5     249     255    1015    0.00
    10/16/2017 18:30      12    23.7      0.00        80.7      98.7      60.7       2       3     222     226    1015    0.00
    10/16/2017 18:40      13    23.4      0.00        80.1      98.7      60.7       2       3     221     210    1015    0.00
    10/16/2017 18:50      14    26.3      0.00        79.4      98.7      60.7       2       4     249     266    1015    0.00
    10/16/2017 19:00      15    27.2      0.00        79.1      98.7      60.7       2       7     245     248    1015    0.00
    10/16/2017 19:10      14    26.3      0.00        78.5      98.7      60.7       1       4     189     203    1015    0.00
    10/16/2017 19:20      15    26.3      0.00        78.4      98.7      60.7       0       2     205     161    1015    0.00
    10/16/2017 19:30      15    26.3      0.00        77.2      98.7      60.7       0       2     205     168    1015    0.00
    10/16/2017 19:40      16    26.2      0.00        76.5      98.7      60.7       0       3     196     204    1015    0.00
    10/16/2017 19:50      16    26.3      0.00        75.9      98.7      60.7       1       2     156     174    1015    0.00
    10/16/2017 20:00      16    26.1      0.00        75.3      98.7      60.7       0       2     119     155    1015    0.00
    10/16/2017 20:10      16    25.5      0.00        74.9      98.7      60.7       0       2     120     133    1015    0.00
    10/16/2017 20:20      16    25.7      0.00        73.9      98.7      60.7       0       3      97      28    1015    0.00
    10/16/2017 20:30      17    25.2      0.00        73.7      98.7      60.7       1       3     173     154    1015    0.00
    10/16/2017 20:40      14    23.8      0.00        74.1      98.7      60.7       1       4     219     200    1015    0.00
    10/16/2017 20:50       7    18.2      0.00        75.2      98.7      60.7       3       8     315       0    1015    0.00
    10/16/2017 21:00       6    10.8      0.00        81.7      98.7      60.7       2       7     322     333    1015    0.00
    10/16/2017 21:10       6     9.6      0.00        83.2      98.7      60.7       3       7     327     335    1015    0.00
    10/16/2017 21:20       6     9.1      0.00        83.9      98.7      60.7       4      10     332     328    1015    0.00
    10/16/2017 21:30       6     9.1      0.00        84.0      98.7      60.7       4       9     337     337    1015    0.00
    10/16/2017 21:40       6     8.8      0.00        84.1      98.7      60.7       4      15     337     333    1016    0.00
    10/16/2017 21:50       6     9.1      0.00        84.0      98.7      60.7       2       7     327      -0    1016    0.00
    10/16/2017 22:00      10    12.0      0.00        82.5      98.7      60.7       2       6     306     333    1016    0.00
    10/16/2017 22:10      12    19.3      0.00        78.6      98.7      60.7       1       2     243     249    1016    0.00
    10/16/2017 22:20      11    18.1      0.00        76.2      98.7      60.7       0       2     243     247    1016    0.00
    10/16/2017 22:30      11    16.4      0.00        75.8      98.7      60.7       0       2     194     197    1015    0.00
    10/16/2017 22:40      14    19.2      0.00        75.7      98.7      60.7       2       4     130     134    1015    0.00
    10/16/2017 22:50      15    21.7      0.00        73.1      98.7      60.7       2       4     130     142    1015    0.00
    10/16/2017 23:00      15    22.2      0.00        71.8      98.7      60.7       2       4     148     137    1016    0.00
    10/16/2017 23:10      16    22.6      0.00        70.7      98.7      60.7       2       5     142     137    1015    0.00
    10/16/2017 23:20      16    22.4      0.00        70.4      98.7      60.7       2       5     203     165    1015    0.00
    10/16/2017 23:30      17    22.2      0.00        70.6      98.7      60.7       0       2     204     215    1015    0.00
    10/16/2017 23:40      17    23.5      0.00        70.0      98.7      60.7       0       2      74     170    1015    0.00
    10/16/2017 23:50      22    26.1      0.00        69.0      98.7      60.7       0       1     251     257    1015    0.00
    10/17/2017 00:00      21    25.6      0.00        68.3      98.7      60.7       0       2     271     337    1015    0.00
    10/17/2017 00:10      22    25.7      0.00        68.1      68.4      67.9       0       2     145     328    1015    0.00
    10/17/2017 00:20      22    26.2      0.00        67.9      68.4      67.2       1       2     337     354    1015    0.00
    10/17/2017 00:30      21    26.4      0.00        67.4      68.4      67.2       0       3     302     334    1015    0.00
    10/17/2017 00:40      20    27.2      0.00        68.0      68.4      67.2       1       3     326     347    1015    0.00
    10/17/2017 00:50      21    27.0      0.00        67.3      68.4      67.0       1       4     324     290    1015    0.00
    10/17/2017 01:00      24    26.3      0.00        66.8      68.4      66.1       0       3     103     214    1015    0.00
    10/17/2017 01:10      21    26.8      0.00        66.2      68.4      65.8       1       2     269     288    1015    0.00
    10/17/2017 01:20      22    25.5      0.00        66.7      68.4      65.8       0       2     276     285    1015    0.00
    10/17/2017 01:30      22    26.2      0.00        66.7      68.4      65.8       1       2     309     292    1015    0.00
    10/17/2017 01:40      21    26.8      0.00        66.5      68.4      65.8       1       2     315     307    1015    0.00
    10/17/2017 01:50      24    26.2      0.00        66.2      68.4      65.8       1       2     315     281    1015    0.00
    10/17/2017 02:00      24    26.6      0.00        65.5      68.4      65.3       0       2     358     345    1015    0.00
    10/17/2017 02:10      21    26.1      0.00        65.3      68.4      65.0       1       2     342     351    1015    0.00
    10/17/2017 02:20      23    26.8      0.00        65.2      68.4      64.9       0       2     353       0    1015    0.00
    10/17/2017 02:30      23    25.6      0.00        65.2      68.4      64.8       0       2      28     348    1014    0.00
    10/17/2017 02:40      23    26.9      0.00        65.0      68.4      64.8       0       2     289     330    1014    0.00
    10/17/2017 02:50      23    26.4      0.00        65.0      68.4      64.5       0       1     259     227    1014    0.00
    10/17/2017 03:00      23    25.3      0.00        64.5      68.4      64.3       0       2      38     321    1014    0.00
    10/17/2017 03:10      22    25.9      0.00        64.6      68.4      64.3       0       1      69      81    1014    0.00
    10/17/2017 03:20      21    26.1      0.00        65.3      68.4      64.3       0       2     334     292    1014    0.00
    10/17/2017 03:30      22    25.0      0.00        65.5      68.4      64.3       0       2     294     248    1014    0.00
    10/17/2017 03:40      24    26.6      0.00        64.2      68.4      63.6       2       3     209     237    1014    0.00
    10/17/2017 03:50      24    27.0      0.00        63.6      68.4      63.4       0       2     226     172    1014    0.00
    10/17/2017 04:00      23    26.4      0.00        63.8      68.4      63.4       2       3     284     289    1014    0.00
    10/17/2017 04:10      24    25.9      0.00        64.1      68.4      63.4       0       3     303     280    1014    0.00
    10/17/2017 04:20      25    26.5      0.00        64.0      68.4      63.4       1       3     327     347    1014    0.00
    10/17/2017 04:30      25    26.9      0.00        63.5      68.4      63.2       0       2     321     348    1014    0.00
    10/17/2017 04:40      22    25.8      0.00        63.6      68.4      63.2       1       3      22      63    1014    0.00
    10/17/2017 04:50      24    25.2      0.00        64.3      68.4      63.2       1       4      80      73    1014    0.00
    10/17/2017 05:00      23    27.9      0.00        63.9      68.4      63.2       0       2     153     150    1014    0.00